Boyd Golding — WDC9793 — position and weather

sailwx.info

Track history (hours):
 
Tides and Currents Weather Stations Pressure Air Temp Water Temp Dewpoint Dewpoint Depression Visibility Wind Speed Wind Dir Waves Ship Positions

Boyd Golding

Owner: Golding Barge Line, Inc., VICKSBURG, MS. More information available from US FCC via Universal Licensing System and Coast Guard Vessel Documentation Center.

Last reported at 2017-Dec-11 15:48 UTC. Time now 2017-Dec-11 21:19 UTC.
Position N 29°43' W 095°14'.

Length 23 m; draft 2.7 m.

Type: . MMSI: 367106750.

Date/timePositionNaut miles runAvg speedWind from/ knotsBaromVisibWave heightAir tempDewpointWater temp
2017-Dec-11 15:48N 29°43' W 095°14'0 0.0
2017-Dec-11 15:26N 29°43' W 095°14'0 0.0
2017-Dec-11 14:59N 29°43' W 095°14'0 0.0
2017-Dec-11 14:29N 29°43' W 095°14'0 0.0
2017-Dec-11 14:00N 29°43' W 095°14'0 0.0
2017-Dec-11 13:30N 29°43' W 095°14'0 0.0
2017-Dec-11 13:00N 29°43' W 095°14'0 0.0
2017-Dec-11 12:24N 29°43' W 095°14'0 0.0
2017-Dec-11 12:00N 29°43' W 095°14'0 0.0
2017-Dec-11 11:30N 29°43' W 095°14'0 0.0
2017-Dec-11 11:00N 29°43' W 095°14'0 0.1
2017-Dec-11 10:30N 29°43' W 095°14'1 1.9
2017-Dec-11 10:00N 29°44' W 095°13'3 5.7
2017-Dec-11 09:31N 29°45' W 095°10'3 6.6
2017-Dec-11 09:00N 29°44' W 095°07'3 6.4
2017-Dec-11 08:31N 29°47' W 095°04'1 1.3
2017-Dec-11 07:59N 29°47' W 095°04'2 4.9
2017-Dec-11 07:30N 29°46' W 095°06'0 0.0
2017-Dec-09 19:18N 29°46' W 095°06'0 0.0
2017-Dec-09 18:58N 29°46' W 095°06'0 0.0
2017-Dec-09 18:22N 29°46' W 095°06'0 0.0
2017-Dec-09 17:59N 29°46' W 095°06'0 0.0
2017-Dec-09 17:30N 29°46' W 095°06'0 0.0
2017-Dec-09 16:50N 29°46' W 095°06'0 0.0
2017-Dec-09 16:28N 29°46' W 095°06'0 0.0
2017-Dec-09 16:00N 29°46' W 095°06'0 0.0
2017-Dec-09 15:30N 29°46' W 095°06'0 0.0
2017-Dec-09 15:00N 29°46' W 095°06'0 0.0
2017-Dec-09 14:30N 29°46' W 095°06'0 0.0
2017-Dec-09 14:00N 29°46' W 095°06'0 0.0
2017-Dec-09 13:30N 29°46' W 095°06'0 0.0
2017-Dec-09 13:00N 29°46' W 095°06'0 0.0
2017-Dec-09 12:30N 29°46' W 095°06'0 0.0
2017-Dec-09 12:00N 29°46' W 095°06'0 0.0
2017-Dec-09 11:30N 29°46' W 095°06'0 0.0
2017-Dec-09 11:00N 29°46' W 095°06'0 0.0
2017-Dec-09 10:30N 29°46' W 095°06'0 0.0
2017-Dec-09 10:00N 29°46' W 095°06'0 0.0
2017-Dec-09 09:30N 29°46' W 095°06'0 0.0
2017-Dec-09 09:00N 29°46' W 095°06'0 0.0
2017-Dec-09 08:30N 29°46' W 095°06'0 0.0
2017-Dec-09 08:00N 29°46' W 095°06'0 0.0
2017-Dec-09 07:30N 29°46' W 095°06'0 0.0
2017-Dec-09 07:00N 29°46' W 095°06'0 0.0
2017-Dec-09 04:57N 29°46' W 095°06'1 1.0
2017-Dec-09 04:25N 29°46' W 095°06'1 0.2
2017-Dec-08 23:07N 29°47' W 095°05'0 3.2
2017-Dec-08 23:00N 29°46' W 095°05'2 4.7
2017-Dec-08 22:30N 29°44' W 095°03'4 7.5
2017-Dec-08 22:00N 29°42' W 094°60'4 8.0
2017-Dec-08 21:30N 29°38' W 094°58'5 9.2
2017-Dec-08 21:00N 29°34' W 094°55'5 9.1
2017-Dec-08 20:30N 29°30' W 094°53'71 2.8
2017-Dec-07 18:48N 30°04' W 093°40'2 7.4
2017-Dec-07 18:30N 30°04' W 093°37'3 6.5
2017-Dec-07 18:00N 30°04' W 093°33'3 6.2
2017-Dec-07 17:30N 30°04' W 093°30'3 6.0
2017-Dec-07 17:00N 30°04' W 093°26'3 6.0
2017-Dec-07 16:30N 30°04' W 093°23'2 5.0
2017-Dec-07 16:00N 30°05' W 093°20'3 6.5
2017-Dec-07 15:30N 30°08' W 093°20'3 6.8
2017-Dec-07 15:01N 30°11' W 093°18'0 0.1
2017-Dec-07 14:30N 30°11' W 093°18'0 0.0
2017-Dec-07 14:00N 30°11' W 093°18'0 0.0
2017-Dec-07 13:30N 30°11' W 093°18'0 0.0
2017-Dec-07 13:00N 30°11' W 093°18'0 0.0
2017-Dec-07 12:30N 30°11' W 093°18'0 0.0
2017-Dec-07 12:00N 30°11' W 093°18'0 0.0
2017-Dec-07 11:30N 30°11' W 093°18'0 0.0
2017-Dec-07 11:00N 30°11' W 093°18'0 0.0
2017-Dec-07 10:30N 30°11' W 093°18'0 0.0
2017-Dec-07 10:00N 30°11' W 093°18'0 0.0
2017-Dec-07 09:30N 30°11' W 093°18'0 0.0
2017-Dec-07 09:00N 30°11' W 093°18'0 0.0
2017-Dec-07 08:30N 30°11' W 093°18'0 0.0
2017-Dec-07 08:00N 30°11' W 093°18'0 0.0
2017-Dec-07 07:30N 30°11' W 093°18'0 0.0
2017-Dec-07 07:00N 30°11' W 093°18'0 0.0
2017-Dec-07 06:30N 30°11' W 093°18'0 0.0
2017-Dec-07 06:00N 30°11' W 093°18'0 0.0
2017-Dec-07 05:30N 30°11' W 093°18'0 0.0
2017-Dec-07 05:00N 30°11' W 093°18'0 0.0
2017-Dec-07 04:30N 30°11' W 093°18'0 0.0
2017-Dec-07 04:00N 30°11' W 093°18'0 0.0
2017-Dec-07 03:30N 30°11' W 093°18'0 0.0
2017-Dec-07 03:00N 30°11' W 093°18'0 0.0
2017-Dec-07 02:30N 30°11' W 093°18'0 0.0
2017-Dec-07 02:00N 30°11' W 093°18'2 0.6
2017-Dec-06 23:11N 30°10' W 093°19'0 1.3
2017-Dec-06 23:00N 30°09' W 093°20'0 0.0
2017-Dec-06 22:30N 30°09' W 093°20'2 3.7
2017-Dec-06 22:01N 30°11' W 093°18'0 0.0
2017-Dec-06 21:30N 30°11' W 093°18'0 0.0
2017-Dec-06 21:00N 30°11' W 093°18'  
2017-Dec-04 04:11N 29°51' W 092°22'1 4.8
2017-Dec-04 04:01N 29°51' W 092°21'2 4.9
2017-Dec-04 03:31N 29°50' W 092°18'2 4.4
2017-Dec-04 03:01N 29°49' W 092°16'2 4.5
2017-Dec-04 02:31N 29°48' W 092°14'1 2.4
2017-Dec-04 02:01N 29°47' W 092°12'1 2.7
2017-Dec-04 01:31N 29°47' W 092°11'0 0.3
2017-Dec-04 01:01N 29°47' W 092°11'0 0.1
2017-Dec-04 00:30N 29°47' W 092°11'2 4.6
2017-Dec-03 23:59N 29°47' W 092°08'3 5.4
2017-Dec-03 23:27N 29°48' W 092°05'2 5.4
2017-Dec-03 23:00N 29°49' W 092°02'3 5.9
2017-Dec-03 22:26N 29°50' W 091°59'2 5.2
2017-Dec-03 21:58N 29°51' W 091°56'52 2.4
2017-Dec-03 00:10N 29°36' W 090°58'3 5.3
2017-Dec-02 23:37N 29°34' W 090°56'1 5.9
2017-Dec-02 23:25N 29°33' W 090°55'3 5.9
2017-Dec-02 22:57N 29°32' W 090°52'3 5.9
2017-Dec-02 22:30N 29°32' W 090°49'3 5.3
2017-Dec-02 22:01N 29°32' W 090°46'3 5.0
2017-Dec-02 21:31N 29°34' W 090°44'2 4.4
2017-Dec-02 21:01N 29°36' W 090°43'1 2.7
2017-Dec-02 20:31N 29°36' W 090°41'0 0.6
2017-Dec-02 20:01N 29°36' W 090°41'2 4.3
2017-Dec-02 19:30N 29°35' W 090°39'2 4.7
2017-Dec-02 19:00N 29°35' W 090°36'1 2.7
2017-Dec-02 18:30N 29°34' W 090°35'2 4.4
2017-Dec-02 18:00N 29°34' W 090°32'2 4.6
2017-Dec-02 17:30N 29°34' W 090°30'  
Track history (hours):
 
Tides and Currents Weather Stations Pressure Air Temp Water Temp Dewpoint Dewpoint Depression Visibility Wind Speed Wind Dir Waves Ship Positions

Boyd Golding

Owner: Golding Barge Line, Inc., VICKSBURG, MS. More information available from US FCC via Universal Licensing System and Coast Guard Vessel Documentation Center.

Last reported at 2017-Dec-11 15:48 UTC. Time now 2017-Dec-11 21:19 UTC.
Position N 29°43' W 095°14'.

Length 23 m; draft 2.7 m.

Type: . MMSI: 367106750.

Date/timePositionNaut miles runAvg speedWind from/ knotsBaromVisibWave heightAir tempDewpointWater temp
2017-Dec-11 15:48N 29°43' W 095°14'0 0.0
2017-Dec-11 15:26N 29°43' W 095°14'0 0.0
2017-Dec-11 14:59N 29°43' W 095°14'0 0.0
2017-Dec-11 14:29N 29°43' W 095°14'0 0.0
2017-Dec-11 14:00N 29°43' W 095°14'0 0.0
2017-Dec-11 13:30N 29°43' W 095°14'0 0.0
2017-Dec-11 13:00N 29°43' W 095°14'0 0.0
2017-Dec-11 12:24N 29°43' W 095°14'0 0.0
2017-Dec-11 12:00N 29°43' W 095°14'0 0.0
2017-Dec-11 11:30N 29°43' W 095°14'0 0.0
2017-Dec-11 11:00N 29°43' W 095°14'0 0.1
2017-Dec-11 10:30N 29°43' W 095°14'1 1.9
2017-Dec-11 10:00N 29°44' W 095°13'3 5.7
2017-Dec-11 09:31N 29°45' W 095°10'3 6.6
2017-Dec-11 09:00N 29°44' W 095°07'3 6.4
2017-Dec-11 08:31N 29°47' W 095°04'1 1.3
2017-Dec-11 07:59N 29°47' W 095°04'2 4.9
2017-Dec-11 07:30N 29°46' W 095°06'0 0.0
2017-Dec-09 19:18N 29°46' W 095°06'0 0.0
2017-Dec-09 18:58N 29°46' W 095°06'0 0.0
2017-Dec-09 18:22N 29°46' W 095°06'0 0.0
2017-Dec-09 17:59N 29°46' W 095°06'0 0.0
2017-Dec-09 17:30N 29°46' W 095°06'0 0.0
2017-Dec-09 16:50N 29°46' W 095°06'0 0.0
2017-Dec-09 16:28N 29°46' W 095°06'0 0.0
2017-Dec-09 16:00N 29°46' W 095°06'0 0.0
2017-Dec-09 15:30N 29°46' W 095°06'0 0.0
2017-Dec-09 15:00N 29°46' W 095°06'0 0.0
2017-Dec-09 14:30N 29°46' W 095°06'0 0.0
2017-Dec-09 14:00N 29°46' W 095°06'0 0.0
2017-Dec-09 13:30N 29°46' W 095°06'0 0.0
2017-Dec-09 13:00N 29°46' W 095°06'0 0.0
2017-Dec-09 12:30N 29°46' W 095°06'0 0.0
2017-Dec-09 12:00N 29°46' W 095°06'0 0.0
2017-Dec-09 11:30N 29°46' W 095°06'0 0.0
2017-Dec-09 11:00N 29°46' W 095°06'0 0.0
2017-Dec-09 10:30N 29°46' W 095°06'0 0.0
2017-Dec-09 10:00N 29°46' W 095°06'0 0.0
2017-Dec-09 09:30N 29°46' W 095°06'0 0.0
2017-Dec-09 09:00N 29°46' W 095°06'0 0.0
2017-Dec-09 08:30N 29°46' W 095°06'0 0.0
2017-Dec-09 08:00N 29°46' W 095°06'0 0.0
2017-Dec-09 07:30N 29°46' W 095°06'0 0.0
2017-Dec-09 07:00N 29°46' W 095°06'0 0.0
2017-Dec-09 04:57N 29°46' W 095°06'1 1.0
2017-Dec-09 04:25N 29°46' W 095°06'1 0.2
2017-Dec-08 23:07N 29°47' W 095°05'0 3.2
2017-Dec-08 23:00N 29°46' W 095°05'2 4.7
2017-Dec-08 22:30N 29°44' W 095°03'4 7.5
2017-Dec-08 22:00N 29°42' W 094°60'4 8.0
2017-Dec-08 21:30N 29°38' W 094°58'5 9.2
2017-Dec-08 21:00N 29°34' W 094°55'5 9.1
2017-Dec-08 20:30N 29°30' W 094°53'71 2.8
2017-Dec-07 18:48N 30°04' W 093°40'2 7.4
2017-Dec-07 18:30N 30°04' W 093°37'3 6.5
2017-Dec-07 18:00N 30°04' W 093°33'3 6.2
2017-Dec-07 17:30N 30°04' W 093°30'3 6.0
2017-Dec-07 17:00N 30°04' W 093°26'3 6.0
2017-Dec-07 16:30N 30°04' W 093°23'2 5.0
2017-Dec-07 16:00N 30°05' W 093°20'3 6.5
2017-Dec-07 15:30N 30°08' W 093°20'3 6.8
2017-Dec-07 15:01N 30°11' W 093°18'0 0.1
2017-Dec-07 14:30N 30°11' W 093°18'0 0.0
2017-Dec-07 14:00N 30°11' W 093°18'0 0.0
2017-Dec-07 13:30N 30°11' W 093°18'0 0.0
2017-Dec-07 13:00N 30°11' W 093°18'0 0.0
2017-Dec-07 12:30N 30°11' W 093°18'0 0.0
2017-Dec-07 12:00N 30°11' W 093°18'0 0.0
2017-Dec-07 11:30N 30°11' W 093°18'0 0.0
2017-Dec-07 11:00N 30°11' W 093°18'0 0.0
2017-Dec-07 10:30N 30°11' W 093°18'0 0.0
2017-Dec-07 10:00N 30°11' W 093°18'0 0.0
2017-Dec-07 09:30N 30°11' W 093°18'0 0.0
2017-Dec-07 09:00N 30°11' W 093°18'0 0.0
2017-Dec-07 08:30N 30°11' W 093°18'0 0.0
2017-Dec-07 08:00N 30°11' W 093°18'0 0.0
2017-Dec-07 07:30N 30°11' W 093°18'0 0.0
2017-Dec-07 07:00N 30°11' W 093°18'0 0.0
2017-Dec-07 06:30N 30°11' W 093°18'0 0.0
2017-Dec-07 06:00N 30°11' W 093°18'0 0.0
2017-Dec-07 05:30N 30°11' W 093°18'0 0.0
2017-Dec-07 05:00N 30°11' W 093°18'0 0.0
2017-Dec-07 04:30N 30°11' W 093°18'0 0.0
2017-Dec-07 04:00N 30°11' W 093°18'0 0.0
2017-Dec-07 03:30N 30°11' W 093°18'0 0.0
2017-Dec-07 03:00N 30°11' W 093°18'0 0.0
2017-Dec-07 02:30N 30°11' W 093°18'0 0.0
2017-Dec-07 02:00N 30°11' W 093°18'2 0.6
2017-Dec-06 23:11N 30°10' W 093°19'0 1.3
2017-Dec-06 23:00N 30°09' W 093°20'0 0.0
2017-Dec-06 22:30N 30°09' W 093°20'2 3.7
2017-Dec-06 22:01N 30°11' W 093°18'0 0.0
2017-Dec-06 21:30N 30°11' W 093°18'0 0.0
2017-Dec-06 21:00N 30°11' W 093°18'  
2017-Dec-04 04:11N 29°51' W 092°22'1 4.8
2017-Dec-04 04:01N 29°51' W 092°21'2 4.9
2017-Dec-04 03:31N 29°50' W 092°18'2 4.4
2017-Dec-04 03:01N 29°49' W 092°16'2 4.5
2017-Dec-04 02:31N 29°48' W 092°14'1 2.4
2017-Dec-04 02:01N 29°47' W 092°12'1 2.7
2017-Dec-04 01:31N 29°47' W 092°11'0 0.3
2017-Dec-04 01:01N 29°47' W 092°11'0 0.1
2017-Dec-04 00:30N 29°47' W 092°11'2 4.6
2017-Dec-03 23:59N 29°47' W 092°08'3 5.4
2017-Dec-03 23:27N 29°48' W 092°05'2 5.4
2017-Dec-03 23:00N 29°49' W 092°02'3 5.9
2017-Dec-03 22:26N 29°50' W 091°59'2 5.2
2017-Dec-03 21:58N 29°51' W 091°56'52 2.4
2017-Dec-03 00:10N 29°36' W 090°58'3 5.3
2017-Dec-02 23:37N 29°34' W 090°56'1 5.9
2017-Dec-02 23:25N 29°33' W 090°55'3 5.9
2017-Dec-02 22:57N 29°32' W 090°52'3 5.9
2017-Dec-02 22:30N 29°32' W 090°49'3 5.3
2017-Dec-02 22:01N 29°32' W 090°46'3 5.0
2017-Dec-02 21:31N 29°34' W 090°44'2 4.4
2017-Dec-02 21:01N 29°36' W 090°43'1 2.7
2017-Dec-02 20:31N 29°36' W 090°41'0 0.6
2017-Dec-02 20:01N 29°36' W 090°41'2 4.3
2017-Dec-02 19:30N 29°35' W 090°39'2 4.7
2017-Dec-02 19:00N 29°35' W 090°36'1 2.7
2017-Dec-02 18:30N 29°34' W 090°35'2 4.4
2017-Dec-02 18:00N 29°34' W 090°32'2 4.6
2017-Dec-02 17:30N 29°34' W 090°30'  

Dump ship's entire track history